Fairfield, North Dakota
Current Conditions -  °F | °C
As of 8:56 PM on Saturday 25 Oct 2014 (Local Time) from KDIK Reporting Station
Clear Clear  
Wind Chill: 51°   Ceiling: Unl
Heat Index: 51°   Visibility: 10mi
Dew Point: 30°   Wind: 18mph
Humidity: 44%   Direction: 150°SSE
Pressure: 29.85"   Gusts: 25mph
Location:  47.19°N, 103.23°W
Report Text: KDIK 260256Z AUTO 15016G22KT 10SM CLR 11/M01 A2985 RMK AO2 SLP113 T01061011 58025
Loading
Personal Weather Stations






























Interactive Weather Map
Tropical Storm Tracking
New forecast layout! Learn more

10-Day Weather Forecast

Advertisements
Track Severe Weather on mobile